Time;durP1;ratioP1;P1;durP2;ratioP2;P2;SDS_P1;SDS_P2;PMS_P1;PMS_P2;Temp;Humidity;BMP_temperature;BMP_pressure;BME280_temperature;BME280_humidity;BME280_pressure;Samples;Min_cycle;Max_cycle;Signal;HPM_P1;HPM_P2
2024/03/10 00:01:58;;;;;;;;;;;;;;;7.72;nan;100166.88;5112897;23;20340;-68
2024/03/10 00:04:00;;;;;;;;;;;;;;;7.71;nan;100172.41;5113524;23;20272;-67
2024/03/10 00:06:03;;;;;;;;;;;;;;;7.69;nan;100167.22;5113846;23;19935;-68
2024/03/10 00:08:05;;;;;;;;;;;;;;;7.69;nan;100169.06;5112181;23;19930;-68
2024/03/10 00:10:07;;;;;;;;;;;;;;;7.67;nan;100169.25;5114081;23;19930;-68
2024/03/10 00:12:09;;;;;;;;;;;;;;;7.64;nan;100164.22;5113213;23;19920;-68
2024/03/10 00:14:12;;;;;;;;;;;;;;;7.63;nan;100159.84;5113770;23;20503;-67
2024/03/10 00:16:14;;;;;;;;;;;;;;;7.64;nan;100160.69;5106898;23;19935;-68
2024/03/10 00:18:16;;;;;;;;;;;;;;;7.62;nan;100155.50;5109854;23;19925;-69
2024/03/10 00:20:19;;;;;;;;;;;;;;;7.61;nan;100158.34;5111238;23;19924;-68
2024/03/10 00:22:22;;;;;;;;;;;;;;;7.60;nan;100156.66;5110718;23;19928;-68
2024/03/10 00:24:24;;;;;;;;;;;;;;;7.58;nan;100160.34;5111707;23;19924;-67
2024/03/10 00:26:27;;;;;;;;;;;;;;;7.58;nan;100154.97;5113812;23;19920;-68
2024/03/10 00:28:29;;;;;;;;;;;;;;;7.57;nan;100149.81;5115003;23;19924;-68
2024/03/10 00:30:33;;;;;;;;;;;;;;;7.56;nan;100150.78;5112737;23;20271;-67
2024/03/10 00:32:35;;;;;;;;;;;;;;;7.54;nan;100147.44;5113745;23;20471;-68
2024/03/10 00:34:37;;;;;;;;;;;;;;;7.53;nan;100145.75;5111428;23;19930;-68
2024/03/10 00:36:39;;;;;;;;;;;;;;;7.52;nan;100144.06;5113985;23;20366;-68
2024/03/10 00:38:41;;;;;;;;;;;;;;;7.51;nan;100151.31;5116802;23;19930;-68
2024/03/10 00:40:43;;;;;;;;;;;;;;;7.49;nan;100139.91;5115487;23;20263;-67
2024/03/10 00:42:44;;;;;;;;;;;;;;;7.48;nan;100143.59;5116433;23;19920;-67
2024/03/10 00:44:47;;;;;;;;;;;;;;;7.46;nan;100153.69;5115654;23;20358;-68
2024/03/10 00:46:50;;;;;;;;;;;;;;;7.46;nan;100148.31;5117025;23;20028;-68
2024/03/10 00:48:52;;;;;;;;;;;;;;;7.44;nan;100150.31;5117280;23;19924;-68
2024/03/10 00:50:54;;;;;;;;;;;;;;;7.44;nan;100147.63;5117144;23;19930;-68
2024/03/10 00:52:57;;;;;;;;;;;;;;;7.42;nan;100148.81;5116700;23;19920;-68
2024/03/10 00:54:59;;;;;;;;;;;;;;;7.40;nan;100157.88;5116587;23;19920;-68
2024/03/10 00:57:01;;;;;;;;;;;;;;;7.39;nan;100153.50;5117628;23;19939;-68
2024/03/10 00:59:04;;;;;;;;;;;;;;;7.38;nan;100154.53;5117136;23;19927;-68
2024/03/10 01:01:06;;;;;;;;;;;;;;;7.37;nan;100147.47;5116180;23;20222;-68
2024/03/10 01:03:11;;;;;;;;;;;;;;;7.36;nan;100147.66;5116920;23;19924;-68
2024/03/10 01:05:14;;;;;;;;;;;;;;;7.35;nan;100152.19;5116337;23;19930;-67
2024/03/10 01:07:16;;;;;;;;;;;;;;;7.35;nan;100145.94;5117384;23;20341;-67
2024/03/10 01:09:18;;;;;;;;;;;;;;;7.33;nan;100147.97;5117664;23;19954;-67
2024/03/10 01:11:21;;;;;;;;;;;;;;;7.32;nan;100152.53;5117191;23;19920;-68
2024/03/10 01:13:23;;;;;;;;;;;;;;;7.32;nan;100146.28;5117750;23;19931;-68
2024/03/10 01:15:25;;;;;;;;;;;;;;;7.29;nan;100141.25;5115851;23;20352;-68
2024/03/10 01:17:28;;;;;;;;;;;;;;;7.29;nan;100136.75;5117512;23;19927;-68
2024/03/10 01:19:31;;;;;;;;;;;;;;;7.28;nan;100134.22;5117436;23;20259;-68
2024/03/10 01:21:34;;;;;;;;;;;;;;;7.27;nan;100137.91;5117126;23;19920;-68
2024/03/10 01:23:35;;;;;;;;;;;;;;;7.24;nan;100133.75;5117507;23;20340;-68
2024/03/10 01:25:37;;;;;;;;;;;;;;;7.24;nan;100128.38;5117459;23;19924;-68
2024/03/10 01:27:38;;;;;;;;;;;;;;;7.23;nan;100126.69;5117592;23;19920;-68
2024/03/10 01:29:40;;;;;;;;;;;;;;;7.22;nan;100127.69;5116746;23;20251;-68
2024/03/10 01:31:43;;;;;;;;;;;;;;;7.20;nan;100119.78;5117150;23;19926;-67
2024/03/10 01:33:45;;;;;;;;;;;;;;;7.19;nan;100123.50;5113579;23;19924;-68
2024/03/10 01:35:48;;;;;;;;;;;;;;;7.20;nan;100116.28;5115115;23;20247;-68
2024/03/10 01:37:50;;;;;;;;;;;;;;;7.18;nan;100115.63;5116871;23;19927;-67
2024/03/10 01:39:52;;;;;;;;;;;;;;;7.17;nan;100111.25;5116968;23;19921;-68
2024/03/10 01:41:54;;;;;;;;;;;;;;;7.17;nan;100104.03;5115606;23;19921;-68
2024/03/10 01:43:57;;;;;;;;;;;;;;;7.16;nan;100104.19;5117253;23;19931;-68
2024/03/10 01:46:02;;;;;;;;;;;;;;;7.15;nan;100107.91;5116691;23;20466;-67
2024/03/10 01:48:04;;;;;;;;;;;;;;;7.14;nan;100100.84;5117226;23;19927;-68
2024/03/10 01:50:06;;;;;;;;;;;;;;;7.12;nan;100098.31;5117014;23;19927;-68
2024/03/10 01:52:10;;;;;;;;;;;;;;;7.13;nan;100099.16;5116376;23;20359;-67
2024/03/10 01:54:12;;;;;;;;;;;;;;;7.11;nan;100095.81;5116949;23;19920;-68
2024/03/10 01:56:14;;;;;;;;;;;;;;;7.10;nan;100094.13;5116817;23;19924;-67
2024/03/10 01:58:16;;;;;;;;;;;;;;;7.09;nan;100097.84;5115182;23;20234;-67
2024/03/10 02:00:19;;;;;;;;;;;;;;;7.07;nan;100091.78;5115435;23;20256;-68
2024/03/10 02:02:22;;;;;;;;;;;;;;;7.07;nan;100086.41;5115858;23;19920;-68
2024/03/10 02:04:24;;;;;;;;;;;;;;;7.05;nan;100091.94;5116666;23;19920;-68
2024/03/10 02:06:26;;;;;;;;;;;;;;;7.06;nan;100092.81;5115306;23;19928;-68
2024/03/10 02:08:30;;;;;;;;;;;;;;;7.05;nan;100094.63;5116773;23;19926;-68
2024/03/10 02:10:32;;;;;;;;;;;;;;;7.03;nan;100100.19;5115808;23;19924;-68
2024/03/10 02:12:35;;;;;;;;;;;;;;;7.03;nan;100096.66;5116494;23;20256;-68
2024/03/10 02:14:37;;;;;;;;;;;;;;;7.01;nan;100091.47;5115946;23;19926;-68
2024/03/10 02:16:40;;;;;;;;;;;;;;;6.98;nan;100086.44;5114256;23;19920;-67
2024/03/10 02:18:43;;;;;;;;;;;;;;;6.97;nan;100087.44;5116427;23;20340;-67
2024/03/10 02:20:45;;;;;;;;;;;;;;;6.97;nan;100090.13;5115289;23;19930;-67
2024/03/10 02:22:47;;;;;;;;;;;;;;;6.95;nan;100080.56;5113438;23;19930;-67
2024/03/10 02:24:51;;;;;;;;;;;;;;;6.94;nan;100082.41;5116143;23;19927;-67
2024/03/10 02:26:54;;;;;;;;;;;;;;;6.95;nan;100083.25;5115783;23;19925;-68
2024/03/10 02:29:14;;;;;;;;;;;;;;;6.94;nan;100082.41;5116287;23;20445;-68
2024/03/10 02:47:35;;;;;;;;;;;;;;;6.86;nan;100090.47;5116839;23;19924;-68
2024/03/10 02:49:37;;;;;;;;;;;;;;;6.84;nan;100093.31;5116598;23;19920;-67
2024/03/10 02:51:39;;;;;;;;;;;;;;;6.83;nan;100085.44;5116673;23;19954;-67
2024/03/10 02:53:41;;;;;;;;;;;;;;;6.82;nan;100089.16;5116714;23;19920;-68
2024/03/10 02:55:44;;;;;;;;;;;;;;;6.81;nan;100090.97;5116582;23;20355;-67
2024/03/10 02:57:47;;;;;;;;;;;;;;;6.80;nan;100089.31;5115192;23;19920;-67
2024/03/10 02:59:50;;;;;;;;;;;;;;;6.79;nan;100087.63;5116072;23;19920;-68
2024/03/10 03:01:52;;;;;;;;;;;;;;;6.78;nan;100088.63;5116327;23;20252;-68
2024/03/10 03:03:54;;;;;;;;;;;;;;;6.77;nan;100092.34;5116116;23;19924;-67
2024/03/10 03:05:56;;;;;;;;;;;;;;;6.75;nan;100080.91;5116857;23;19924;-68
2024/03/10 03:07:59;;;;;;;;;;;;;;;6.75;nan;100083.59;5116561;23;19920;-67
2024/03/10 03:10:01;;;;;;;;;;;;;;;6.74;nan;100081.94;5116333;23;19920;-67
2024/03/10 03:12:04;;;;;;;;;;;;;;;6.74;nan;100078.38;5116581;23;19924;-67
2024/03/10 03:14:08;;;;;;;;;;;;;;;6.72;nan;100078.56;5116925;23;19934;-68
2024/03/10 03:16:11;;;;;;;;;;;;;;;6.72;nan;100083.09;5115907;23;19920;-68
2024/03/10 03:18:14;;;;;;;;;;;;;;;6.71;nan;100073.34;5117766;23;19930;-68
2024/03/10 03:20:16;;;;;;;;;;;;;;;6.70;nan;100077.06;5117568;23;19927;-68
2024/03/10 03:22:19;;;;;;;;;;;;;;;6.68;nan;100083.44;5117497;23;19930;-68
2024/03/10 03:24:22;;;;;;;;;;;;;;;6.68;nan;100077.22;5117747;23;19920;-68
2024/03/10 03:26:24;;;;;;;;;;;;;;;6.67;nan;100088.97;5117688;23;19930;-69
2024/03/10 03:28:27;;;;;;;;;;;;;;;6.66;nan;100085.44;5117974;23;19921;-68
2024/03/10 03:30:31;;;;;;;;;;;;;;;6.66;nan;100081.91;5116867;23;19924;-68
2024/03/10 03:32:35;;;;;;;;;;;;;;;6.65;nan;100077.56;5117826;23;19946;-68
2024/03/10 03:34:38;;;;;;;;;;;;;;;6.64;nan;100073.19;5117486;23;19930;-68
2024/03/10 03:36:41;;;;;;;;;;;;;;;6.63;nan;100079.56;5117723;23;19924;-68
2024/03/10 03:38:44;;;;;;;;;;;;;;;6.62;nan;100077.91;5117744;23;19926;-68
2024/03/10 03:40:46;;;;;;;;;;;;;;;6.59;nan;100080.91;5117620;23;19921;-68
2024/03/10 03:42:47;;;;;;;;;;;;;;;6.59;nan;100075.56;5117361;23;20246;-68
2024/03/10 03:44:50;;;;;;;;;;;;;;;6.59;nan;100072.88;5117502;23;19920;-69
2024/03/10 03:46:52;;;;;;;;;;;;;;;6.58;nan;100076.53;5117175;23;19931;-68
2024/03/10 03:48:55;;;;;;;;;;;;;;;6.58;nan;100076.53;5117631;23;19930;-68
2024/03/10 03:50:58;;;;;;;;;;;;;;;6.55;nan;100072.38;5117015;23;19947;-68
2024/03/10 03:53:00;;;;;;;;;;;;;;;6.55;nan;100074.19;5116061;23;20374;-68
2024/03/10 03:55:03;;;;;;;;;;;;;;;6.55;nan;100074.19;5117476;23;19935;-68
2024/03/10 03:57:05;;;;;;;;;;;;;;;6.54;nan;100073.38;5117443;23;19920;-69
2024/03/10 03:59:08;;;;;;;;;;;;;;;6.53;nan;100078.91;5117376;23;19934;-68
2024/03/10 04:01:12;;;;;;;;;;;;;;;6.49;nan;100068.50;5116831;23;19920;-68
2024/03/10 04:03:14;;;;;;;;;;;;;;;6.50;nan;100077.38;5092919;23;19921;-68
2024/03/10 04:05:18;;;;;;;;;;;;;;;6.49;nan;100073.03;5067088;23;19921;-68
2024/03/10 04:07:20;;;;;;;;;;;;;;;6.48;nan;100072.19;5092926;23;19943;-68
2024/03/10 04:09:23;;;;;;;;;;;;;;;6.47;nan;100061.63;5092682;23;19924;-68
2024/03/10 04:11:25;;;;;;;;;;;;;;;6.46;nan;100068.84;5092739;23;20423;-68
2024/03/10 04:13:27;;;;;;;;;;;;;;;6.44;nan;100070.84;5092688;23;19931;-69
2024/03/10 04:15:30;;;;;;;;;;;;;;;6.44;nan;100070.84;5092340;23;19925;-68
2024/03/10 04:17:32;;;;;;;;;;;;;;;6.44;nan;100070.00;5092478;23;19943;-68
2024/03/10 04:19:35;;;;;;;;;;;;;;;6.42;nan;100054.06;5092099;23;19924;-68
2024/03/10 04:21:38;;;;;;;;;;;;;;;6.43;nan;100065.66;5090668;23;19931;-68
2024/03/10 04:23:41;;;;;;;;;;;;;;;6.42;nan;100062.13;5092420;23;19921;-68
2024/03/10 04:25:43;;;;;;;;;;;;;;;6.41;nan;100065.81;5092709;23;19924;-69
2024/03/10 04:27:46;;;;;;;;;;;;;;;6.40;nan;100058.78;5092500;23;19925;-68
2024/03/10 04:29:47;;;;;;;;;;;;;;;6.38;nan;100051.88;5092182;23;19921;-68
2024/03/10 04:31:49;;;;;;;;;;;;;;;6.39;nan;100061.63;5092302;23;19951;-68
2024/03/10 04:33:51;;;;;;;;;;;;;;;6.38;nan;100059.94;5092813;23;19921;-69
2024/03/10 04:35:53;;;;;;;;;;;;;;;6.37;nan;100051.06;5092755;23;19920;-69
2024/03/10 04:37:57;;;;;;;;;;;;;;;6.37;nan;100059.09;5092648;23;20260;-68
2024/03/10 04:39:58;;;;;;;;;;;;;;;6.36;nan;100052.06;5092173;23;20224;-68
2024/03/10 04:42:00;;;;;;;;;;;;;;;6.34;nan;100054.06;5091825;23;19920;-68
2024/03/10 04:44:03;;;;;;;;;;;;;;;6.33;nan;100063.09;5092547;23;19927;-68
2024/03/10 04:46:05;;;;;;;;;;;;;;;6.32;nan;100056.91;5092092;23;20241;-68
2024/03/10 04:48:10;;;;;;;;;;;;;;;6.31;nan;100046.34;5092719;23;19931;-68
2024/03/10 04:50:13;;;;;;;;;;;;;;;6.31;nan;100049.03;5065994;23;19921;-68
2024/03/10 04:52:15;;;;;;;;;;;;;;;6.29;nan;100051.06;5092830;23;19925;-68
2024/03/10 04:54:19;;;;;;;;;;;;;;;6.28;nan;100047.50;5092330;23;20538;-69
2024/03/10 04:56:22;;;;;;;;;;;;;;;6.29;nan;100051.06;5092593;23;19924;-68
2024/03/10 04:58:23;;;;;;;;;;;;;;;6.27;nan;100053.03;5092649;23;19921;-68
2024/03/10 05:00:25;;;;;;;;;;;;;;;6.22;nan;100048.22;5092306;23;19931;-68
2024/03/10 05:02:27;;;;;;;;;;;;;;;6.25;nan;100055.06;5107243;23;19927;-68
2024/03/10 05:04:29;;;;;;;;;;;;;;;6.22;nan;100050.88;5116897;23;19924;-69
2024/03/10 05:06:31;;;;;;;;;;;;;;;6.21;nan;100054.56;5117050;23;19930;-68
2024/03/10 05:08:34;;;;;;;;;;;;;;;6.19;nan;100059.25;5117210;23;19927;-68
2024/03/10 05:10:36;;;;;;;;;;;;;;;6.19;nan;100055.72;5116724;23;19970;-68
2024/03/10 05:12:38;;;;;;;;;;;;;;;6.17;nan;100050.53;5117002;23;19938;-68
2024/03/10 05:14:40;;;;;;;;;;;;;;;6.17;nan;100060.41;5116902;23;19928;-69
2024/03/10 05:16:43;;;;;;;;;;;;;;;6.16;nan;100051.56;5116420;23;19920;-68
2024/03/10 05:18:46;;;;;;;;;;;;;;;6.15;nan;100055.22;5116507;23;19925;-67
2024/03/10 05:20:48;;;;;;;;;;;;;;;6.15;nan;100051.72;5116804;23;19920;-68
2024/03/10 05:22:52;;;;;;;;;;;;;;;6.14;nan;100056.22;5116934;23;19925;-68
2024/03/10 05:24:55;;;;;;;;;;;;;;;6.13;nan;100050.03;5116359;23;19927;-68
2024/03/10 05:26:57;;;;;;;;;;;;;;;6.12;nan;100059.06;5116840;23;19921;-68
2024/03/10 05:28:59;;;;;;;;;;;;;;;6.12;nan;100058.22;5117202;23;19920;-68
2024/03/10 05:31:01;;;;;;;;;;;;;;;6.12;nan;100063.59;5116155;23;20264;-68
2024/03/10 05:33:05;;;;;;;;;;;;;;;6.11;nan;100051.19;5116253;23;19921;-68
2024/03/10 05:35:09;;;;;;;;;;;;;;;6.09;nan;100048.66;5116925;23;19931;-68
2024/03/10 05:37:11;;;;;;;;;;;;;;;6.08;nan;100041.66;5116963;23;19924;-68
2024/03/10 05:39:14;;;;;;;;;;;;;;;6.08;nan;100046.16;5116866;23;19920;-68
2024/03/10 05:41:16;;;;;;;;;;;;;;;6.07;nan;100052.53;5115923;23;19920;-68
2024/03/10 05:43:20;;;;;;;;;;;;;;;6.06;nan;100051.69;5116695;23;20337;-68
2024/03/10 05:45:21;;;;;;;;;;;;;;;6.05;nan;100046.47;5114285;23;19924;-68
2024/03/10 05:47:26;;;;;;;;;;;;;;;6.05;nan;100044.66;5116952;23;19924;-69
2024/03/10 05:49:29;;;;;;;;;;;;;;;6.05;nan;100036.63;5116364;23;19930;-68
2024/03/10 05:51:31;;;;;;;;;;;;;;;6.04;nan;100034.94;5116931;23;19927;-68
2024/03/10 05:53:32;;;;;;;;;;;;;;;6.04;nan;100029.56;5116902;23;20260;-68
2024/03/10 05:55:35;;;;;;;;;;;;;;;6.04;nan;100037.59;5116746;23;20619;-68
2024/03/10 05:57:36;;;;;;;;;;;;;;;6.04;nan;100039.47;5116510;23;19925;-68
2024/03/10 05:59:40;;;;;;;;;;;;;;;6.06;nan;100048.16;5116633;23;19924;-68
2024/03/10 06:01:42;;;;;;;;;;;;;;;6.04;nan;100034.94;5115794;23;19925;-68
2024/03/10 06:03:44;;;;;;;;;;;;;;;6.04;nan;100034.09;5115720;23;19924;-69
2024/03/10 06:05:46;;;;;;;;;;;;;;;6.04;nan;100037.59;5116892;23;19968;-68
2024/03/10 06:07:48;;;;;;;;;;;;;;;6.04;nan;100039.47;5116681;23;19926;-68
2024/03/10 06:09:51;;;;;;;;;;;;;;;6.05;nan;100035.75;5116522;23;19929;-68
2024/03/10 06:11:53;;;;;;;;;;;;;;;6.06;nan;100042.81;5115922;23;20583;-68
2024/03/10 06:13:55;;;;;;;;;;;;;;;6.05;nan;100031.25;5116361;23;19924;-68
2024/03/10 06:15:59;;;;;;;;;;;;;;;6.05;nan;100035.75;5116659;23;19942;-68
2024/03/10 06:18:04;;;;;;;;;;;;;;;6.04;nan;100034.94;5116358;23;19932;-68
2024/03/10 06:27:07;;;;;;;;;;;;;;;6.08;nan;100032.75;5116199;23;20563;-67
2024/03/10 06:29:09;;;;;;;;;;;;;;;6.10;nan;100033.44;5116091;23;19930;-68
2024/03/10 06:31:12;;;;;;;;;;;;;;;6.11;nan;100032.41;5115368;23;20427;-67
2024/03/10 06:33:15;;;;;;;;;;;;;;;6.11;nan;100025.22;5116098;23;19924;-68
2024/03/10 06:35:17;;;;;;;;;;;;;;;6.13;nan;100027.75;5115913;23;20333;-68
2024/03/10 06:37:20;;;;;;;;;;;;;;;6.15;nan;100030.25;5117066;23;19920;-68
2024/03/10 06:39:23;;;;;;;;;;;;;;;6.16;nan;100021.19;5116715;23;20336;-68
2024/03/10 06:41:25;;;;;;;;;;;;;;;6.18;nan;100035.28;5116116;23;19931;-68
2024/03/10 06:43:28;;;;;;;;;;;;;;;6.19;nan;100035.13;5116256;23;20347;-68
2024/03/10 06:45:30;;;;;;;;;;;;;;;6.20;nan;100026.06;5116172;23;19924;-67
2024/03/10 06:47:34;;;;;;;;;;;;;;;6.22;nan;100029.44;5117980;23;19927;-67
2024/03/10 06:49:36;;;;;;;;;;;;;;;6.25;nan;100028.25;5117959;23;19920;-67
2024/03/10 06:51:38;;;;;;;;;;;;;;;6.27;nan;100042.31;5115591;23;19928;-67
2024/03/10 06:53:40;;;;;;;;;;;;;;;6.29;nan;100032.28;5119231;23;20271;-67
2024/03/10 06:55:43;;;;;;;;;;;;;;;6.31;nan;100035.63;5119214;23;19924;-67
2024/03/10 06:57:46;;;;;;;;;;;;;;;6.34;nan;100037.16;5119265;23;19939;-67
2024/03/10 06:59:48;;;;;;;;;;;;;;;6.36;nan;100044.00;5119785;23;20378;-67
2024/03/10 07:01:54;;;;;;;;;;;;;;;6.39;nan;100045.53;5118599;23;19928;-67
2024/03/10 07:03:57;;;;;;;;;;;;;;;6.42;nan;100040.66;5118395;23;19936;-67
2024/03/10 07:06:03;;;;;;;;;;;;;;;6.44;nan;100037.81;5116520;23;19924;-67
2024/03/10 07:08:07;;;;;;;;;;;;;;;6.47;nan;100032.09;5141615;23;19920;-67
2024/03/10 07:10:10;;;;;;;;;;;;;;;6.49;nan;100028.25;5118503;23;20263;-66
2024/03/10 07:12:13;;;;;;;;;;;;;;;6.53;nan;100030.59;5141589;23;19924;-66
2024/03/10 07:14:18;;;;;;;;;;;;;;;6.56;nan;100030.28;5118764;23;19921;-66
2024/03/10 07:16:20;;;;;;;;;;;;;;;6.58;nan;100031.78;5115809;23;19921;-66
2024/03/10 07:18:22;;;;;;;;;;;;;;;6.62;nan;100034.97;5119612;23;19942;-66
2024/03/10 07:20:26;;;;;;;;;;;;;;;6.65;nan;100034.63;5119787;23;19924;-66
2024/03/10 07:22:28;;;;;;;;;;;;;;;6.68;nan;100040.50;5116867;23;19924;-66
2024/03/10 07:24:30;;;;;;;;;;;;;;;6.72;nan;100034.78;5117718;23;19924;-66
2024/03/10 07:26:34;;;;;;;;;;;;;;;6.75;nan;100037.13;5117697;23;19956;-66
2024/03/10 07:28:36;;;;;;;;;;;;;;;6.78;nan;100024.19;5118233;23;19931;-66
2024/03/10 07:30:38;;;;;;;;;;;;;;;6.81;nan;100029.22;5116858;23;20345;-67
2024/03/10 07:32:42;;;;;;;;;;;;;;;6.84;nan;100014.66;5117957;23;19920;-66
2024/03/10 07:34:44;;;;;;;;;;;;;;;6.88;nan;100016.00;5116179;23;19920;-66
2024/03/10 07:36:48;;;;;;;;;;;;;;;6.91;nan;100012.97;5116117;23;19931;-66
2024/03/10 07:38:51;;;;;;;;;;;;;;;6.95;nan;100013.44;5115323;23;19946;-67
2024/03/10 07:40:53;;;;;;;;;;;;;;;6.99;nan;100015.63;5116288;23;19921;-67
2024/03/10 07:42:56;;;;;;;;;;;;;;;7.02;nan;100012.59;5116622;23;19931;-67
2024/03/10 07:44:58;;;;;;;;;;;;;;;7.07;nan;100005.84;5116952;23;20408;-67
2024/03/10 07:47:01;;;;;;;;;;;;;;;7.10;nan;100014.44;5090342;23;19931;-67
2024/03/10 07:49:04;;;;;;;;;;;;;;;7.13;nan;100013.22;5118795;23;19924;-67
2024/03/10 07:51:06;;;;;;;;;;;;;;;7.16;nan;100013.75;5118089;23;19927;-67
2024/03/10 07:53:10;;;;;;;;;;;;;;;7.21;nan;100022.09;5117707;23;19920;-66
2024/03/10 07:55:12;;;;;;;;;;;;;;;7.26;nan;100026.09;5117172;23;19920;-66
2024/03/10 07:57:14;;;;;;;;;;;;;;;7.29;nan;100026.63;5116929;23;19920;-67
2024/03/10 07:59:21;;;;;;;;;;;;;;;7.34;nan;100018.03;5116956;23;19924;-66
2024/03/10 08:01:23;;;;;;;;;;;;;;;7.37;nan;100023.91;5113410;23;19925;-66
2024/03/10 08:03:26;;;;;;;;;;;;;;;7.41;nan;100021.69;5116303;23;19920;-68
2024/03/10 08:05:29;;;;;;;;;;;;;;;7.45;nan;100019.50;5116205;23;19947;-68
2024/03/10 08:07:30;;;;;;;;;;;;;;;7.49;nan;100027.06;5114503;23;19920;-68
2024/03/10 08:09:35;;;;;;;;;;;;;;;7.52;nan;100018.63;5115536;23;19924;-67
2024/03/10 08:11:38;;;;;;;;;;;;;;;7.57;nan;100012.75;5116247;23;19924;-68
2024/03/10 08:13:40;;;;;;;;;;;;;;;7.63;nan;100012.00;5116482;23;19924;-68
2024/03/10 08:15:42;;;;;;;;;;;;;;;7.65;nan;100004.63;5117005;23;19930;-68
2024/03/10 08:17:44;;;;;;;;;;;;;;;7.70;nan;99999.56;5117361;23;19920;-68
2024/03/10 08:19:46;;;;;;;;;;;;;;;7.75;nan;99999.03;5117449;23;19920;-68
2024/03/10 08:21:49;;;;;;;;;;;;;;;7.79;nan;99996.81;5117308;23;19931;-68
2024/03/10 08:23:51;;;;;;;;;;;;;;;7.84;nan;99997.13;5117362;23;19924;-68
2024/03/10 08:25:55;;;;;;;;;;;;;;;7.87;nan;99994.94;5117537;23;19920;-68
2024/03/10 08:27:58;;;;;;;;;;;;;;;7.93;nan;99999.59;5117509;23;19927;-68
2024/03/10 08:30:01;;;;;;;;;;;;;;;7.98;nan;100003.59;5117161;23;19931;-68
2024/03/10 08:32:04;;;;;;;;;;;;;;;8.03;nan;100003.91;5116825;23;19924;-68
2024/03/10 08:34:06;;;;;;;;;;;;;;;8.08;nan;100001.50;5117601;23;19926;-68
2024/03/10 08:36:08;;;;;;;;;;;;;;;8.12;nan;99994.75;5116694;23;19921;-68
2024/03/10 08:38:11;;;;;;;;;;;;;;;8.17;nan;99997.75;5116779;23;19920;-69
2024/03/10 08:40:14;;;;;;;;;;;;;;;8.20;nan;99994.69;5116892;23;19924;-69
2024/03/10 08:42:18;;;;;;;;;;;;;;;8.25;nan;99996.84;5116575;23;20352;-69
2024/03/10 08:44:22;;;;;;;;;;;;;;;8.32;nan;99988.88;5116993;23;19920;-68
2024/03/10 08:46:24;;;;;;;;;;;;;;;8.36;nan;99991.03;5116563;23;19920;-68
2024/03/10 08:48:26;;;;;;;;;;;;;;;8.41;nan;99988.63;5116912;23;20336;-68
2024/03/10 08:50:29;;;;;;;;;;;;;;;8.45;nan;99989.16;5116365;23;19924;-68
2024/03/10 08:52:31;;;;;;;;;;;;;;;8.50;nan;99989.44;5116358;23;19924;-68
2024/03/10 08:54:33;;;;;;;;;;;;;;;8.56;nan;99996.78;5113879;23;19934;-68
2024/03/10 08:56:36;;;;;;;;;;;;;;;8.61;nan;99993.56;5115341;23;19924;-67
2024/03/10 08:58:41;;;;;;;;;;;;;;;8.66;nan;99989.28;5113390;23;19924;-67
2024/03/10 09:00:44;;;;;;;;;;;;;;;8.72;nan;99990.41;5115310;23;19924;-71
2024/03/10 09:02:46;;;;;;;;;;;;;;;8.77;nan;99982.59;5114271;23;19939;-70
2024/03/10 09:04:52;;;;;;;;;;;;;;;8.86;nan;99982.53;5113873;23;20368;-70
2024/03/10 09:06:54;;;;;;;;;;;;;;;8.92;nan;99979.94;5115448;23;19924;-70
2024/03/10 09:08:57;;;;;;;;;;;;;;;8.99;nan;99975.47;5113914;23;20260;-70
2024/03/10 09:11:00;;;;;;;;;;;;;;;9.06;nan;99983.66;5113958;23;19921;-71
2024/03/10 09:13:02;;;;;;;;;;;;;;;9.12;nan;99982.94;5115321;23;19939;-71
2024/03/10 09:15:06;;;;;;;;;;;;;;;9.19;nan;99974.94;5113751;23;19924;-70
2024/03/10 09:17:08;;;;;;;;;;;;;;;9.26;nan;99981.22;5114463;23;19931;-70
2024/03/10 09:19:10;;;;;;;;;;;;;;;9.33;nan;99966.00;5114558;23;19924;-69
2024/03/10 09:21:14;;;;;;;;;;;;;;;9.39;nan;99983.28;5114698;23;19924;-70
2024/03/10 09:23:16;;;;;;;;;;;;;;;9.45;nan;99971.75;5115340;23;19930;-71
2024/03/10 09:25:21;;;;;;;;;;;;;;;9.50;nan;99963.09;5114961;23;20341;-70
2024/03/10 09:27:23;;;;;;;;;;;;;;;9.56;nan;99973.94;5115661;23;19930;-70
2024/03/10 09:29:27;;;;;;;;;;;;;;;9.61;nan;99973.38;5115553;23;20271;-70
2024/03/10 09:31:30;;;;;;;;;;;;;;;9.67;nan;99978.03;5113427;23;19930;-71
2024/03/10 09:33:32;;;;;;;;;;;;;;;9.72;nan;99980.97;5113799;23;20248;-71
2024/03/10 09:35:35;;;;;;;;;;;;;;;9.77;nan;99983.09;5114587;23;19928;-71
2024/03/10 09:37:39;;;;;;;;;;;;;;;9.83;nan;99985.03;5114952;23;19929;-68
2024/03/10 09:39:41;;;;;;;;;;;;;;;9.86;nan;99998.13;5114664;23;19924;-68
2024/03/10 09:41:43;;;;;;;;;;;;;;;9.91;nan;99993.00;5114336;23;19927;-69
2024/03/10 09:43:47;;;;;;;;;;;;;;;9.95;nan;99979.13;5115510;23;19930;-68
2024/03/10 09:45:51;;;;;;;;;;;;;;;9.98;nan;99984.16;5115277;23;19924;-68
2024/03/10 09:47:54;;;;;;;;;;;;;;;10.02;nan;99980.03;5114838;23;19931;-68
2024/03/10 09:49:56;;;;;;;;;;;;;;;10.04;nan;99989.59;5114576;23;19974;-69
2024/03/10 09:51:58;;;;;;;;;;;;;;;10.08;nan;99981.97;5112296;23;19930;-67
2024/03/10 09:54:03;;;;;;;;;;;;;;;10.12;nan;99974.31;5115009;23;19924;-68
2024/03/10 09:56:07;;;;;;;;;;;;;;;10.13;nan;99970.59;5112947;23;19925;-68
2024/03/10 09:58:12;;;;;;;;;;;;;;;10.16;nan;99971.06;5115539;23;19920;-68
2024/03/10 10:00:15;;;;;;;;;;;;;;;10.20;nan;99974.19;5114838;23;19924;-67
2024/03/10 10:02:19;;;;;;;;;;;;;;;10.22;nan;99969.41;5115257;23;19950;-67
2024/03/10 10:04:25;;;;;;;;;;;;;;;10.24;nan;99968.22;5116099;23;19924;-67
2024/03/10 10:06:27;;;;;;;;;;;;;;;10.27;nan;99972.41;5116188;23;19976;-67
2024/03/10 10:08:30;;;;;;;;;;;;;;;10.28;nan;99971.34;5116462;23;19927;-67
2024/03/10 10:10:32;;;;;;;;;;;;;;;10.31;nan;99970.13;5115885;23;19930;-67
2024/03/10 10:12:33;;;;;;;;;;;;;;;10.32;nan;99966.41;5115122;23;20353;-68
2024/03/10 10:14:36;;;;;;;;;;;;;;;10.34;nan;99962.50;5115436;23;19920;-68
2024/03/10 10:16:38;;;;;;;;;;;;;;;10.36;nan;99960.47;5115532;23;19930;-67
2024/03/10 10:18:40;;;;;;;;;;;;;;;10.38;nan;99965.69;5116057;23;19954;-67
2024/03/10 10:20:45;;;;;;;;;;;;;;;10.39;nan;99953.81;5115199;23;19925;-68
2024/03/10 10:23:24;;;;;;;;;;;;;;;10.41;nan;99965.28;5116048;23;19920;-67
2024/03/10 10:29:16;;;;;;;;;;;;;;;10.43;nan;99961.34;5113706;23;19916;-68
2024/03/10 10:31:43;;;;;;;;;;;;;;;10.44;nan;99960.31;5114708;23;19920;-68
2024/03/10 10:33:45;;;;;;;;;;;;;;;10.44;nan;99949.53;5114538;23;19920;-68
2024/03/10 10:35:48;;;;;;;;;;;;;;;10.45;nan;99948.50;5112374;23;20348;-68
2024/03/10 10:37:51;;;;;;;;;;;;;;;10.47;nan;99942.91;5114970;23;19924;-67
2024/03/10 10:39:54;;;;;;;;;;;;;;;10.48;nan;99935.63;5115028;23;19934;-68
2024/03/10 10:41:55;;;;;;;;;;;;;;;10.49;nan;99931.91;5114286;23;19930;-68
2024/03/10 10:43:58;;;;;;;;;;;;;;;10.49;nan;99935.44;5114670;23;19920;-68
2024/03/10 10:46:01;;;;;;;;;;;;;;;10.50;nan;99926.31;5115309;23;19926;-68
2024/03/10 10:48:03;;;;;;;;;;;;;;;10.52;nan;99929.66;5112519;23;20305;-68
2024/03/10 10:50:20;;;;;;;;;;;;;;;10.53;nan;99925.94;5112053;23;20268;-69
2024/03/10 10:52:24;;;;;;;;;;;;;;;10.56;nan;99911.19;5113753;23;19927;-68
2024/03/10 10:54:27;;;;;;;;;;;;;;;10.57;nan;99908.28;5115112;23;19931;-69
2024/03/10 10:56:29;;;;;;;;;;;;;;;10.59;nan;99916.19;5113171;23;19950;-67
2024/03/10 10:58:33;;;;;;;;;;;;;;;10.61;nan;99914.13;5113013;23;20257;-68
2024/03/10 11:00:35;;;;;;;;;;;;;;;10.59;nan;99899.97;5107043;23;20234;-68
2024/03/10 11:02:40;;;;;;;;;;;;;;;10.64;nan;99908.31;5108260;23;19920;-67
2024/03/10 11:04:43;;;;;;;;;;;;;;;10.67;nan;99912.50;5111996;23;19920;-67
2024/03/10 11:06:46;;;;;;;;;;;;;;;10.69;nan;99905.03;5112946;23;19928;-68
2024/03/10 11:08:51;;;;;;;;;;;;;;;10.69;nan;99908.56;5115141;23;19924;-67
2024/03/10 11:10:54;;;;;;;;;;;;;;;10.71;nan;99895.69;5113536;23;19924;-67
2024/03/10 11:13:07;;;;;;;;;;;;;;;10.74;nan;99892.59;5115172;23;20378;-67
2024/03/10 11:15:09;;;;;;;;;;;;;;;10.75;nan;99891.59;5114566;23;19930;-68
2024/03/10 11:17:12;;;;;;;;;;;;;;;10.77;nan;99891.38;5112735;23;19924;-67
2024/03/10 11:19:16;;;;;;;;;;;;;;;10.78;nan;99885.78;5115592;23;20256;-68
2024/03/10 11:21:18;;;;;;;;;;;;;;;10.79;nan;99882.03;5115844;23;19931;-70
2024/03/10 11:23:30;;;;;;;;;;;;;;;10.81;nan;99885.38;5116387;23;19924;-70
2024/03/10 11:25:35;;;;;;;;;;;;;;;10.82;nan;99884.34;5116769;23;19931;-71
2024/03/10 11:27:42;;;;;;;;;;;;;;;10.86;nan;99879.38;5117135;23;19931;-75